createdAt,value
2022-08-18T00:00:20.352Z,25.26
2022-08-18T00:00:55.024Z,25.27
2022-08-18T00:01:42.271Z,25.37
2022-08-18T00:02:30.156Z,25.38
2022-08-18T00:03:53.397Z,25.28
2022-08-18T00:04:25.195Z,25.41
2022-08-18T00:05:19.970Z,25.23
2022-08-18T00:05:54.133Z,25.21
2022-08-18T00:06:40.931Z,25.19
2022-08-18T00:07:23.995Z,25.22
2022-08-18T00:08:12.924Z,25.18
2022-08-18T00:08:46.987Z,25.14
2022-08-18T00:09:33.936Z,25.09
2022-08-18T00:10:17.933Z,25.07
2022-08-18T00:10:58.961Z,25.05
2022-08-18T00:11:43.002Z,25.05
2022-08-18T00:12:44.964Z,25.20
2022-08-18T00:13:24.993Z,25.15
2022-08-18T00:14:05.918Z,25.08
2022-08-18T00:14:46.040Z,25.07
2022-08-18T00:15:26.916Z,24.98
2022-08-18T00:16:13.958Z,25.01
2022-08-18T00:17:07.931Z,25.03
2022-08-18T00:18:01.951Z,25.04
2022-08-18T00:18:55.920Z,25.08
2022-08-18T00:19:49.924Z,25.06
2022-08-18T00:20:43.915Z,25.09
2022-08-18T00:21:30.921Z,25.01
2022-08-18T00:22:05.025Z,25.09
2022-08-18T00:22:53.108Z,25.11
2022-08-18T00:23:28.780Z,25.09
2022-08-18T00:24:15.920Z,25.09
2022-08-18T00:24:53.006Z,25.17
2022-08-18T00:25:40.915Z,25.21
2022-08-18T00:26:14.975Z,25.10
2022-08-18T00:26:55.942Z,25.07
2022-08-18T00:27:38.298Z,25.05
2022-08-18T00:28:20.902Z,24.99
2022-08-18T00:29:04.064Z,24.97
2022-08-18T00:29:43.925Z,24.97
2022-08-18T00:30:27.995Z,25.06
2022-08-18T00:31:08.923Z,25.06
2022-08-18T00:31:48.993Z,24.99
2022-08-18T00:32:40.943Z,25.07
2022-08-18T00:33:21.029Z,25.03
2022-08-18T00:34:00.911Z,24.95
2022-08-18T00:34:41.025Z,24.90
2022-08-18T00:35:34.931Z,24.86
2022-08-18T00:36:15.042Z,24.92
2022-08-18T00:36:56.909Z,24.97
2022-08-18T00:37:38.106Z,24.92
2022-08-18T00:38:24.742Z,25.07
2022-08-18T00:39:06.187Z,25.03
2022-08-18T00:39:46.573Z,25.13
2022-08-18T00:40:37.682Z,25.16
2022-08-18T00:41:18.895Z,25.21
2022-08-18T00:41:58.975Z,25.22
2022-08-18T00:42:39.916Z,25.21
2022-08-18T00:43:41.944Z,25.11
2022-08-18T00:44:35.892Z,25.11
2022-08-18T00:45:36.893Z,25.13
2022-08-18T00:46:36.889Z,25.28
2022-08-18T00:47:41.458Z,25.30
2022-08-18T00:48:36.910Z,25.25
2022-08-18T00:49:17.931Z,25.31
2022-08-18T00:50:00.177Z,25.35
2022-08-18T00:50:52.908Z,25.30
2022-08-18T00:51:38.031Z,25.21
2022-08-18T00:52:20.881Z,25.14
2022-08-18T00:53:07.969Z,25.02
2022-08-18T00:53:59.886Z,25.21
2022-08-18T00:54:40.930Z,25.16
2022-08-18T00:55:15.059Z,25.13
2022-08-18T00:56:07.897Z,25.24
2022-08-18T00:56:47.995Z,25.21
2022-08-18T00:57:35.908Z,25.23
2022-08-18T00:58:17.036Z,25.29
2022-08-18T00:59:18.893Z,25.19
2022-08-18T01:00:09.936Z,25.03
2022-08-18T01:01:04.932Z,25.06
2022-08-18T01:01:59.908Z,24.99
2022-08-18T01:02:59.903Z,25.08
2022-08-18T01:03:59.892Z,25.11
2022-08-18T01:05:05.882Z,25.03
2022-08-18T01:05:52.985Z,24.95
2022-08-18T01:07:00.573Z,24.88
2022-08-18T01:07:53.117Z,24.84
2022-08-18T01:08:33.958Z,24.80
2022-08-18T01:09:15.897Z,24.85
2022-08-18T01:09:59.492Z,24.87
2022-08-18T01:10:41.926Z,24.98
2022-08-18T01:11:21.947Z,25.06
2022-08-18T01:11:56.544Z,25.07
2022-08-18T01:12:46.670Z,24.90
2022-08-18T01:13:20.942Z,24.84
2022-08-18T01:14:07.892Z,24.92
2022-08-18T01:14:41.985Z,24.82
2022-08-18T01:15:31.894Z,24.78
2022-08-18T01:16:32.911Z,24.72
2022-08-18T01:17:45.864Z,24.89
2022-08-18T01:18:57.879Z,24.83
2022-08-18T01:20:09.865Z,24.88
2022-08-18T01:21:43.919Z,24.84
2022-08-18T01:22:59.882Z,24.64
2022-08-18T01:23:54.881Z,24.54
2022-08-18T01:25:08.861Z,24.61
2022-08-18T01:26:10.879Z,24.53
2022-08-18T01:26:57.886Z,24.59
2022-08-18T01:27:32.325Z,24.56
2022-08-18T01:28:18.869Z,24.57
2022-08-18T01:28:54.135Z,24.64
2022-08-18T01:29:43.624Z,24.65
2022-08-18T01:30:25.375Z,24.63
2022-08-18T01:31:13.864Z,24.58
2022-08-18T01:32:04.882Z,24.48
2022-08-18T01:32:58.884Z,24.45
2022-08-18T01:33:57.888Z,24.41
2022-08-18T01:34:53.894Z,24.30
2022-08-18T01:35:47.874Z,24.23
2022-08-18T01:36:43.867Z,24.43
2022-08-18T01:37:29.879Z,24.43
2022-08-18T01:38:13.285Z,24.35
2022-08-18T01:38:58.855Z,24.44
2022-08-18T01:41:17.241Z,24.42
2022-08-18T01:41:22.677Z,24.47
2022-08-18T01:41:39.974Z,24.49
2022-08-18T01:42:23.878Z,24.56
2022-08-18T01:43:03.894Z,24.61
2022-08-18T01:43:38.095Z,24.60
2022-08-18T01:44:24.896Z,24.62
2022-08-18T01:44:58.921Z,24.61
2022-08-18T01:45:47.873Z,24.56
2022-08-18T01:46:25.985Z,24.54
2022-08-18T01:47:12.881Z,24.50
2022-08-18T01:47:47.504Z,24.60
2022-08-18T01:48:28.891Z,24.45
2022-08-18T01:49:09.937Z,24.47
2022-08-18T01:49:49.849Z,24.34
2022-08-18T01:50:30.319Z,24.32
2022-08-18T01:51:12.850Z,24.46
2022-08-18T01:51:55.531Z,24.40
2022-08-18T01:52:35.850Z,24.46
2022-08-18T01:53:18.289Z,24.49
2022-08-18T01:53:57.877Z,24.43
2022-08-18T01:54:39.149Z,24.44
2022-08-18T01:55:21.855Z,24.46
2022-08-18T01:56:05.342Z,24.45
2022-08-18T01:56:45.848Z,24.33
2022-08-18T01:57:26.999Z,24.43
2022-08-18T01:58:07.848Z,24.40
2022-08-18T01:58:47.945Z,24.33
2022-08-18T01:59:28.850Z,24.25
2022-08-18T02:00:09.104Z,24.18
2022-08-18T02:00:53.845Z,24.19
2022-08-18T02:01:36.740Z,24.08
2022-08-18T02:02:23.878Z,24.13
2022-08-18T02:03:09.773Z,24.17
2022-08-18T02:04:10.932Z,24.09
2022-08-18T02:04:56.848Z,24.03
2022-08-18T02:05:41.929Z,24.14
2022-08-18T02:06:32.250Z,24.03
2022-08-18T02:07:08.003Z,24.11
2022-08-18T02:07:55.840Z,24.09
2022-08-18T02:08:29.941Z,23.98
2022-08-18T02:09:24.238Z,23.98
2022-08-18T02:10:05.931Z,24.01
2022-08-18T02:11:05.841Z,23.98
2022-08-18T02:11:59.827Z,23.96
2022-08-18T02:12:54.853Z,23.93
2022-08-18T02:13:48.858Z,23.92
2022-08-18T02:14:37.049Z,23.89
2022-08-18T02:15:18.873Z,23.97
2022-08-18T02:15:58.906Z,23.97
2022-08-18T02:16:39.836Z,24.12
2022-08-18T02:17:22.665Z,24.14
2022-08-18T02:18:02.829Z,24.10
2022-08-18T02:18:47.608Z,23.93
2022-08-18T02:19:28.839Z,23.85
2022-08-18T02:20:08.901Z,23.90
2022-08-18T02:20:49.845Z,23.78
2022-08-18T02:21:29.902Z,23.85
2022-08-18T02:22:10.823Z,23.81
2022-08-18T02:22:53.116Z,23.84
2022-08-18T02:23:32.826Z,23.87
2022-08-18T02:24:13.099Z,23.88
2022-08-18T02:24:53.823Z,23.83
2022-08-18T02:25:33.932Z,23.84
2022-08-18T02:26:19.865Z,23.82
2022-08-18T02:26:59.906Z,23.84
2022-08-18T02:27:40.837Z,23.85
2022-08-18T02:28:20.903Z,23.91
2022-08-18T02:29:01.815Z,23.97
2022-08-18T02:29:42.893Z,24.08
2022-08-18T02:30:24.805Z,24.14
2022-08-18T02:31:04.877Z,24.14
2022-08-18T02:31:44.847Z,24.06
2022-08-18T02:32:24.921Z,24.06
2022-08-18T02:33:09.822Z,24.25
2022-08-18T02:33:52.623Z,24.22
2022-08-18T02:34:32.816Z,24.23
2022-08-18T02:35:14.895Z,24.13
2022-08-18T02:36:00.815Z,24.07
2022-08-18T02:36:40.902Z,24.15
2022-08-18T02:37:20.842Z,24.20
2022-08-18T02:38:00.917Z,24.25
2022-08-18T02:38:44.826Z,24.18
2022-08-18T02:39:32.924Z,24.24
2022-08-18T02:40:15.571Z,24.13
2022-08-18T02:41:09.354Z,23.92
2022-08-18T02:41:50.814Z,23.92
2022-08-18T02:42:37.838Z,23.87
2022-08-18T02:43:34.984Z,23.87
2022-08-18T02:44:31.821Z,23.83
2022-08-18T02:45:26.830Z,23.78
2022-08-18T02:46:20.822Z,23.85
2022-08-18T02:47:17.808Z,23.84
2022-08-18T02:48:02.842Z,24.03
2022-08-18T02:48:42.902Z,24.05
2022-08-18T02:49:22.803Z,24.18
2022-08-18T02:50:02.868Z,24.23
2022-08-18T02:50:51.790Z,24.09
2022-08-18T02:51:31.869Z,24.05
2022-08-18T02:52:12.817Z,23.97
2022-08-18T02:52:54.214Z,23.98
2022-08-18T02:53:34.851Z,24.06
2022-08-18T02:54:14.883Z,24.05
2022-08-18T02:54:55.803Z,23.97
2022-08-18T02:55:35.880Z,24.10
2022-08-18T02:56:41.126Z,24.05
2022-08-18T02:57:16.523Z,23.97
2022-08-18T02:58:04.929Z,23.91
2022-08-18T02:58:45.843Z,24.03
2022-08-18T02:59:31.844Z,23.94
2022-08-18T03:00:18.942Z,23.98
2022-08-18T03:00:58.905Z,23.84
2022-08-18T03:01:45.856Z,23.95
2022-08-18T03:02:26.874Z,23.81
2022-08-18T03:03:06.788Z,23.88
2022-08-18T03:03:53.812Z,23.87
2022-08-18T03:04:31.213Z,23.65
2022-08-18T03:05:19.813Z,23.87
2022-08-18T03:05:54.763Z,23.92
2022-08-18T03:06:42.805Z,23.80
2022-08-18T03:07:18.735Z,23.88
2022-08-18T03:08:06.807Z,23.96
2022-08-18T03:08:40.575Z,23.93
2022-08-18T03:09:23.863Z,23.85
2022-08-18T03:09:59.177Z,23.80
2022-08-18T03:10:35.500Z,23.75
2022-08-18T03:11:16.786Z,23.73
2022-08-18T03:11:52.809Z,23.77
2022-08-18T03:12:26.589Z,23.81
2022-08-18T03:13:07.798Z,23.73
2022-08-18T03:13:41.858Z,23.80
2022-08-18T03:14:16.685Z,23.70
2022-08-18T03:14:56.881Z,23.63
2022-08-18T03:15:30.876Z,23.57
2022-08-18T03:16:04.838Z,23.55
2022-08-18T03:16:53.689Z,23.52
2022-08-18T03:17:28.846Z,23.55
2022-08-18T03:18:02.554Z,23.73
2022-08-18T03:18:43.797Z,23.65
2022-08-18T03:19:17.879Z,23.70
2022-08-18T03:19:51.525Z,23.78
2022-08-18T03:20:32.799Z,23.81
2022-08-18T03:21:15.912Z,23.89
2022-08-18T03:21:49.552Z,23.89
2022-08-18T03:22:31.778Z,23.90
2022-08-18T03:23:09.914Z,23.92
2022-08-18T03:23:44.977Z,23.73
2022-08-18T03:24:41.797Z,23.65
2022-08-18T03:25:15.842Z,23.57
2022-08-18T03:25:56.799Z,23.67
2022-08-18T03:26:38.861Z,23.83
2022-08-18T03:27:19.768Z,23.86
2022-08-18T03:27:59.853Z,23.94
2022-08-18T03:28:40.780Z,23.94
2022-08-18T03:29:21.841Z,23.94
2022-08-18T03:30:02.771Z,23.96
2022-08-18T03:30:43.421Z,24.04
2022-08-18T03:31:27.946Z,23.95
2022-08-18T03:32:10.877Z,24.05
2022-08-18T03:32:50.780Z,24.09
2022-08-18T03:33:30.842Z,24.11
2022-08-18T03:34:07.095Z,24.11
2022-08-18T03:34:48.770Z,24.05
2022-08-18T03:35:22.845Z,24.01
2022-08-18T03:35:56.474Z,23.97
2022-08-18T03:36:39.808Z,23.83
2022-08-18T03:37:15.924Z,23.70
2022-08-18T03:37:49.550Z,23.72
2022-08-18T03:38:30.778Z,23.69
2022-08-18T03:39:05.901Z,23.85
2022-08-18T03:39:40.808Z,23.76
2022-08-18T03:40:21.807Z,23.87
2022-08-18T03:40:59.835Z,23.89
2022-08-18T03:41:43.907Z,23.96
2022-08-18T03:42:35.903Z,24.00
2022-08-18T03:43:38.926Z,23.95
2022-08-18T03:44:06.514Z,23.89
2022-08-18T03:44:46.791Z,23.93
2022-08-18T03:45:20.840Z,23.96
2022-08-18T03:45:55.575Z,23.99
2022-08-18T03:46:36.767Z,24.13
2022-08-18T03:47:20.157Z,24.08
2022-08-18T03:48:00.782Z,24.00
2022-08-18T03:48:41.014Z,24.04
2022-08-18T03:49:20.759Z,23.87
2022-08-18T03:50:00.870Z,23.87
2022-08-18T03:50:40.770Z,23.92
2022-08-18T03:51:26.646Z,23.87
2022-08-18T03:52:06.769Z,23.75
2022-08-18T03:52:49.604Z,23.77
2022-08-18T03:53:29.800Z,23.70
2022-08-18T03:54:13.748Z,23.73
2022-08-18T03:54:54.744Z,23.64
2022-08-18T03:55:34.822Z,23.70
2022-08-18T03:56:25.760Z,23.56
2022-08-18T03:57:06.862Z,23.58
2022-08-18T03:57:46.789Z,23.63
2022-08-18T03:58:26.889Z,23.73
2022-08-18T03:59:13.785Z,23.72
2022-08-18T03:59:54.823Z,23.83
2022-08-18T04:00:38.761Z,23.87
2022-08-18T04:01:26.580Z,23.83
2022-08-18T04:02:10.745Z,23.72
2022-08-18T04:02:51.803Z,23.77
2022-08-18T04:03:34.781Z,23.67
2022-08-18T04:04:26.801Z,23.70
2022-08-18T04:05:00.521Z,23.68
2022-08-18T04:05:53.772Z,23.74
2022-08-18T04:06:40.946Z,23.83
2022-08-18T04:07:27.746Z,23.79
2022-08-18T04:08:04.040Z,23.82
2022-08-18T04:08:50.754Z,23.88
2022-08-18T04:09:34.757Z,23.89
2022-08-18T04:10:19.402Z,23.78
2022-08-18T04:11:00.760Z,23.72
2022-08-18T04:11:45.853Z,23.83
2022-08-18T04:12:25.750Z,23.81
2022-08-18T04:13:06.808Z,23.83
2022-08-18T04:13:47.736Z,23.86
2022-08-18T04:14:32.012Z,23.93
2022-08-18T04:15:12.839Z,23.77
2022-08-18T04:15:52.814Z,23.92
2022-08-18T04:16:34.766Z,23.93
2022-08-18T04:17:16.829Z,23.93
2022-08-18T04:18:03.746Z,24.01
2022-08-18T04:18:44.818Z,23.97
2022-08-18T04:19:26.670Z,23.98
2022-08-18T04:20:07.860Z,23.94
2022-08-18T04:20:59.678Z,24.06
2022-08-18T04:21:44.853Z,23.96
2022-08-18T04:22:25.732Z,24.09
2022-08-18T04:23:06.812Z,24.18
2022-08-18T04:23:47.757Z,24.14
2022-08-18T04:24:31.185Z,24.23
2022-08-18T04:25:15.750Z,24.26
2022-08-18T04:26:19.421Z,24.22
2022-08-18T04:26:54.057Z,24.17
2022-08-18T04:27:41.747Z,24.26
2022-08-18T04:28:15.436Z,24.14
2022-08-18T04:29:02.718Z,24.14
2022-08-18T04:29:36.465Z,24.15
2022-08-18T04:30:24.787Z,24.13
2022-08-18T04:30:59.458Z,24.20
2022-08-18T04:31:39.762Z,24.17
2022-08-18T04:32:21.808Z,24.13
2022-08-18T04:33:12.738Z,24.00
2022-08-18T04:33:52.781Z,24.15
2022-08-18T04:34:33.733Z,24.13
2022-08-18T04:35:14.937Z,24.15
2022-08-18T04:35:54.717Z,24.05
2022-08-18T04:36:36.852Z,24.13
2022-08-18T04:37:17.773Z,24.14
2022-08-18T04:37:57.909Z,24.14
2022-08-18T04:38:37.731Z,24.20
2022-08-18T04:39:19.806Z,24.27
2022-08-18T04:39:59.801Z,24.29
2022-08-18T04:40:41.804Z,24.18
2022-08-18T04:41:21.719Z,24.21
2022-08-18T04:42:04.518Z,24.04
2022-08-18T04:42:44.785Z,24.10
2022-08-18T04:43:24.817Z,24.13
2022-08-18T04:44:07.730Z,24.12
2022-08-18T04:44:48.787Z,24.11
2022-08-18T04:45:28.752Z,24.14
2022-08-18T04:46:09.823Z,24.18
2022-08-18T04:46:56.718Z,24.16
2022-08-18T04:47:36.915Z,24.16
2022-08-18T04:48:18.733Z,24.28
2022-08-18T04:48:59.253Z,24.28
2022-08-18T04:49:40.766Z,24.33
2022-08-18T04:50:20.801Z,24.35
2022-08-18T04:51:00.739Z,24.32
2022-08-18T04:52:27.063Z,24.38
2022-08-18T04:53:00.708Z,24.38
2022-08-18T04:53:54.733Z,24.44
2022-08-18T04:54:30.769Z,24.46
2022-08-18T04:55:18.712Z,24.46
2022-08-18T04:56:00.789Z,24.41
2022-08-18T04:56:47.737Z,24.45
2022-08-18T04:57:26.188Z,24.44
2022-08-18T04:58:12.716Z,24.27
2022-08-18T04:58:52.172Z,24.39
2022-08-18T04:59:31.737Z,24.39
2022-08-18T05:00:14.129Z,24.40
2022-08-18T05:01:03.824Z,24.28
2022-08-18T05:01:48.155Z,24.21
2022-08-18T05:02:29.716Z,24.26
2022-08-18T05:03:09.857Z,24.19
2022-08-18T05:03:51.723Z,24.20
2022-08-18T05:04:38.751Z,24.15
2022-08-18T05:05:33.719Z,24.19
2022-08-18T05:06:27.705Z,24.19
2022-08-18T05:07:24.712Z,24.22
2022-08-18T05:08:18.693Z,24.15
2022-08-18T05:09:22.948Z,23.97
2022-08-18T05:10:03.744Z,24.17
2022-08-18T05:10:43.777Z,24.14
2022-08-18T05:11:23.709Z,24.04
2022-08-18T05:12:03.949Z,24.12
2022-08-18T05:12:43.698Z,24.01
2022-08-18T05:13:23.765Z,24.14
2022-08-18T05:14:06.687Z,23.99
2022-08-18T05:14:47.748Z,24.08
2022-08-18T05:15:28.865Z,24.11
2022-08-18T05:16:18.031Z,24.09
2022-08-18T05:17:09.701Z,24.10
2022-08-18T05:17:50.718Z,24.14
2022-08-18T05:18:31.699Z,24.20
2022-08-18T05:19:15.777Z,24.17
2022-08-18T05:19:59.685Z,24.20
2022-08-18T05:20:47.701Z,24.14
2022-08-18T05:21:43.722Z,24.29
2022-08-18T05:22:38.690Z,24.30
2022-08-18T05:23:35.703Z,24.32
2022-08-18T05:24:37.134Z,24.28
2022-08-18T05:25:31.703Z,24.30
2022-08-18T05:26:12.704Z,24.37
2022-08-18T05:26:53.830Z,24.27
2022-08-18T05:27:44.688Z,24.40
2022-08-18T05:28:24.769Z,24.38
2022-08-18T05:29:18.194Z,24.42
2022-08-18T05:29:59.773Z,24.35
2022-08-18T05:30:40.684Z,24.31
2022-08-18T05:31:32.722Z,24.38
2022-08-18T05:32:38.254Z,24.35
2022-08-18T05:33:42.690Z,24.51
2022-08-18T05:34:36.709Z,24.50
2022-08-18T05:36:02.712Z,24.48
2022-08-18T05:36:55.754Z,24.56
2022-08-18T05:38:08.772Z,24.55
2022-08-18T05:39:22.677Z,24.58
2022-08-18T05:40:11.774Z,24.58
2022-08-18T05:41:27.690Z,24.53
2022-08-18T05:42:24.716Z,24.61
2022-08-18T05:43:18.687Z,24.66
2022-08-18T05:44:13.691Z,24.71
2022-08-18T05:45:09.702Z,24.75
2022-08-18T05:46:04.678Z,24.68
2022-08-18T05:47:14.680Z,24.73
2022-08-18T05:47:54.715Z,24.75
2022-08-18T05:48:39.811Z,24.78
2022-08-18T05:49:24.672Z,24.84
2022-08-18T05:50:12.790Z,24.84
2022-08-18T05:50:52.677Z,24.86
2022-08-18T05:51:41.742Z,24.92
2022-08-18T05:52:40.666Z,24.97
2022-08-18T05:53:22.694Z,25.00
2022-08-18T05:54:15.171Z,25.05
2022-08-18T05:55:26.726Z,25.09
2022-08-18T05:56:28.325Z,25.18
2022-08-18T05:57:22.686Z,25.23
2022-08-18T05:58:17.086Z,25.24
2022-08-18T05:59:00.680Z,25.23
2022-08-18T05:59:48.006Z,25.30
2022-08-18T06:00:30.665Z,25.34
2022-08-18T06:01:18.746Z,25.40
2022-08-18T06:02:34.722Z,25.44
2022-08-18T06:03:27.926Z,25.53
2022-08-18T06:04:39.693Z,25.60
2022-08-18T06:05:35.814Z,25.64
2022-08-18T06:06:30.655Z,25.66
2022-08-18T06:07:13.801Z,25.71
2022-08-18T06:08:03.659Z,25.74
2022-08-18T06:08:52.120Z,25.75
2022-08-18T06:09:43.686Z,25.85
2022-08-18T06:10:23.786Z,25.91
2022-08-18T06:11:04.686Z,25.93
2022-08-18T06:11:44.733Z,25.95
2022-08-18T06:12:51.652Z,26.01
2022-08-18T06:13:31.708Z,25.92
2022-08-18T06:14:12.661Z,26.02
2022-08-18T06:14:59.696Z,26.01
2022-08-18T06:16:22.664Z,26.09
2022-08-18T06:17:50.761Z,26.19
2022-08-18T06:19:29.650Z,26.21
2022-08-18T06:20:56.749Z,26.23
2022-08-18T06:21:54.845Z,26.28
2022-08-18T06:23:53.654Z,26.33
2022-08-18T06:24:50.826Z,26.34
2022-08-18T06:26:10.670Z,26.35
2022-08-18T06:26:59.723Z,26.35
2022-08-18T06:28:20.648Z,26.36
2022-08-18T06:29:16.728Z,26.43
2022-08-18T06:30:30.669Z,26.48
2022-08-18T06:31:27.442Z,26.49
2022-08-18T06:33:04.634Z,26.59
2022-08-18T06:34:37.648Z,26.61
2022-08-18T06:36:03.645Z,26.63
2022-08-18T06:37:13.677Z,26.59
2022-08-18T06:38:40.255Z,26.74
2022-08-18T06:39:48.704Z,26.89
2022-08-18T06:40:28.712Z,26.93
2022-08-18T06:41:40.567Z,26.92
2022-08-18T06:42:40.494Z,27.03
2022-08-18T06:43:34.633Z,26.97
2022-08-18T06:44:52.640Z,27.09
2022-08-18T06:45:51.618Z,27.05
2022-08-18T06:47:04.706Z,27.23
2022-08-18T06:48:19.660Z,27.25
2022-08-18T06:49:18.704Z,27.22
2022-08-18T06:50:21.621Z,27.21
2022-08-18T06:51:18.621Z,27.23
2022-08-18T06:52:12.618Z,27.22
2022-08-18T06:53:27.515Z,27.29
2022-08-18T06:54:32.684Z,27.33
2022-08-18T06:55:21.765Z,27.43
2022-08-18T06:56:02.648Z,27.40
2022-08-18T06:56:47.005Z,27.43
2022-08-18T06:57:40.689Z,27.47
2022-08-18T06:58:24.721Z,27.44
2022-08-18T06:59:30.686Z,27.50
2022-08-18T07:00:32.410Z,27.55
2022-08-18T07:01:12.743Z,27.56
2022-08-18T07:02:52.662Z,27.58
2022-08-18T07:03:46.720Z,27.58
2022-08-18T07:04:49.670Z,27.63
2022-08-18T07:05:35.914Z,27.76
2022-08-18T07:06:28.654Z,27.76
2022-08-18T07:07:03.689Z,27.78
2022-08-18T07:07:52.086Z,27.81
2022-08-18T07:08:53.015Z,27.85
2022-08-18T07:09:42.657Z,27.87
2022-08-18T07:10:29.641Z,27.95
2022-08-18T07:11:49.630Z,27.99
2022-08-18T07:12:44.642Z,27.92
2022-08-18T07:13:42.699Z,28.04
2022-08-18T07:14:37.611Z,28.04
2022-08-18T07:15:38.730Z,28.10
2022-08-18T07:16:58.470Z,28.16
2022-08-18T07:17:53.687Z,28.20
2022-08-18T07:18:47.678Z,28.25
2022-08-18T07:19:44.707Z,28.25
2022-08-18T07:20:39.684Z,28.28
2022-08-18T07:21:45.717Z,28.27
2022-08-18T07:22:39.789Z,28.28
2022-08-18T07:23:57.607Z,28.33
2022-08-18T07:25:06.596Z,28.45
2022-08-18T07:25:57.768Z,28.41
2022-08-18T07:26:31.703Z,28.43
2022-08-18T07:27:25.616Z,28.50
2022-08-18T07:28:02.846Z,28.53
2022-08-18T07:28:56.602Z,28.57
2022-08-18T07:29:30.662Z,28.57
2022-08-18T07:30:27.629Z,28.61
2022-08-18T07:31:52.660Z,28.60
2022-08-18T07:33:00.642Z,28.69
2022-08-18T07:33:56.659Z,28.69
2022-08-18T07:35:00.636Z,28.79
2022-08-18T07:36:05.636Z,28.82
2022-08-18T07:37:26.470Z,28.78
2022-08-18T07:38:51.651Z,28.88
2022-08-18T07:39:54.637Z,28.87
2022-08-18T07:40:57.594Z,28.95
2022-08-18T07:43:01.163Z,28.93
2022-08-18T07:44:02.632Z,29.02
2022-08-18T07:45:06.641Z,29.00
2022-08-18T07:46:02.633Z,29.06
2022-08-18T07:47:18.582Z,29.07
2022-08-18T07:48:38.024Z,29.10
2022-08-18T07:49:54.443Z,29.15
2022-08-18T07:51:08.719Z,29.15
2022-08-18T07:52:26.428Z,29.24
2022-08-18T07:53:40.617Z,29.29
2022-08-18T07:55:00.598Z,29.17
2022-08-18T07:55:58.601Z,29.23
2022-08-18T07:57:21.610Z,29.34
2022-08-18T07:58:44.645Z,29.43
2022-08-18T08:00:18.765Z,29.47
2022-08-18T08:01:50.670Z,29.48
2022-08-18T08:03:21.569Z,29.47
2022-08-18T08:05:14.634Z,29.49
2022-08-18T08:06:20.800Z,29.52
2022-08-18T08:07:25.521Z,29.52
2022-08-18T08:08:07.003Z,29.52
2022-08-18T08:09:18.566Z,29.56
2022-08-18T08:10:13.643Z,29.60
2022-08-18T08:11:25.815Z,29.58
2022-08-18T08:12:27.682Z,29.53
2022-08-18T08:13:55.250Z,29.52
2022-08-18T08:14:58.266Z,29.45
2022-08-18T08:16:09.582Z,29.61
2022-08-18T08:17:10.602Z,29.64
2022-08-18T08:18:31.686Z,29.65
2022-08-18T08:20:03.677Z,29.73
2022-08-18T08:20:54.502Z,29.70
2022-08-18T08:22:06.593Z,29.73
2022-08-18T08:23:10.613Z,29.84
2022-08-18T08:24:34.597Z,29.87
2022-08-18T08:25:58.565Z,29.78
2022-08-18T08:27:24.594Z,29.80
2022-08-18T08:28:56.000Z,29.92
2022-08-18T08:30:17.563Z,29.98
2022-08-18T08:31:45.594Z,29.96
2022-08-18T08:33:08.583Z,30.00
2022-08-18T08:34:24.606Z,29.98
2022-08-18T08:35:59.586Z,30.05
2022-08-18T08:36:57.569Z,30.05
2022-08-18T08:38:39.398Z,30.12
2022-08-18T08:39:49.633Z,30.00
2022-08-18T08:41:10.571Z,30.15
2022-08-18T08:42:32.038Z,30.18
2022-08-18T08:43:31.578Z,30.26
2022-08-18T08:45:08.720Z,30.28
2022-08-18T08:46:31.569Z,30.26
2022-08-18T08:47:38.547Z,30.24
2022-08-18T08:48:42.562Z,30.33
2022-08-18T08:50:01.572Z,30.33
2022-08-18T08:50:50.605Z,30.28
2022-08-18T08:51:50.647Z,30.30
2022-08-18T08:53:10.560Z,30.28
2022-08-18T08:53:55.629Z,30.30
2022-08-18T08:55:01.538Z,30.33
2022-08-18T08:55:48.677Z,30.39
2022-08-18T08:56:37.612Z,30.41
2022-08-18T08:57:20.689Z,30.40
2022-08-18T08:58:24.938Z,30.43
2022-08-18T08:59:11.676Z,30.41
2022-08-18T09:00:01.555Z,30.45
2022-08-18T09:00:36.571Z,30.45
2022-08-18T09:02:00.650Z,30.50
2022-08-18T09:03:13.404Z,30.50
2022-08-18T09:04:12.561Z,30.55
2022-08-18T09:05:21.938Z,30.46
2022-08-18T09:06:55.557Z,30.53
2022-08-18T09:07:48.569Z,30.50
2022-08-18T09:08:52.696Z,30.56
2022-08-18T09:09:56.579Z,30.56
2022-08-18T09:11:10.749Z,30.52
2022-08-18T09:12:31.550Z,30.55
2022-08-18T09:13:40.564Z,30.46
2022-08-18T09:14:44.593Z,30.59
2022-08-18T09:16:18.552Z,30.57
2022-08-18T09:16:59.423Z,30.59
2022-08-18T09:17:52.562Z,30.65
2022-08-18T09:18:48.605Z,30.69
2022-08-18T09:19:49.623Z,30.68
2022-08-18T09:21:34.543Z,30.66
2022-08-18T09:22:30.675Z,30.65
2022-08-18T09:23:24.549Z,30.61
2022-08-18T09:24:35.566Z,30.66
2022-08-18T09:25:29.710Z,30.70
2022-08-18T09:26:39.553Z,30.74
2022-08-18T09:27:28.258Z,30.80
2022-08-18T09:28:31.536Z,30.81
2022-08-18T09:29:44.390Z,30.81
2022-08-18T09:31:09.162Z,30.79
2022-08-18T09:31:52.536Z,30.81
2022-08-18T09:32:32.619Z,30.73
2022-08-18T09:33:50.526Z,30.85
2022-08-18T09:35:15.561Z,30.78
2022-08-18T09:36:00.308Z,30.81
2022-08-18T09:37:17.535Z,30.85
2022-08-18T09:38:31.164Z,30.77
2022-08-18T09:40:12.553Z,30.86
2022-08-18T09:41:17.610Z,30.90
2022-08-18T09:42:14.252Z,30.91
2022-08-18T09:43:10.528Z,31.01
2022-08-18T09:44:12.088Z,31.03
2022-08-18T09:45:36.521Z,30.99
2022-08-18T09:46:25.548Z,30.96
2022-08-18T09:47:02.629Z,30.94
2022-08-18T09:47:49.536Z,31.01
2022-08-18T09:48:31.702Z,31.09
2022-08-18T09:50:01.897Z,31.10
2022-08-18T09:51:17.771Z,31.19
2022-08-18T09:52:26.538Z,31.14
2022-08-18T09:53:05.577Z,31.09
2022-08-18T09:53:53.838Z,31.22
2022-08-18T09:54:39.504Z,31.15
2022-08-18T09:55:23.605Z,31.19
2022-08-18T09:56:04.792Z,31.15
2022-08-18T09:56:57.538Z,31.16
2022-08-18T09:57:44.547Z,31.09
2022-08-18T09:58:26.307Z,30.98
2022-08-18T09:59:14.532Z,30.91
2022-08-18T09:59:49.198Z,31.04
2022-08-18T10:00:43.489Z,31.02
2022-08-18T10:01:40.025Z,31.04
2022-08-18T10:02:49.555Z,31.14
2022-08-18T10:04:40.505Z,31.09
2022-08-18T10:06:32.505Z,31.15
2022-08-18T10:07:42.000Z,31.07
2022-08-18T10:08:27.713Z,31.08
2022-08-18T10:09:43.987Z,31.07
2022-08-18T10:11:08.772Z,31.13
2022-08-18T10:12:27.252Z,31.07
2022-08-18T10:13:49.901Z,31.26
2022-08-18T10:14:30.079Z,31.17
2022-08-18T10:15:48.561Z,31.23
2022-08-18T10:17:23.321Z,31.29
2022-08-18T10:18:23.512Z,31.34
2022-08-18T10:19:52.025Z,31.48
2022-08-18T10:20:39.108Z,31.51
2022-08-18T10:21:36.551Z,31.51
2022-08-18T10:22:52.733Z,31.49
2022-08-18T10:24:32.166Z,31.60
2022-08-18T10:25:27.764Z,31.56
2022-08-18T10:26:04.536Z,31.63
2022-08-18T10:26:55.262Z,31.65
2022-08-18T10:27:55.634Z,31.66
2022-08-18T10:29:10.353Z,31.67
2022-08-18T10:29:53.972Z,31.55
2022-08-18T10:30:56.264Z,31.69
2022-08-18T10:31:33.586Z,31.69
2022-08-18T10:32:08.337Z,31.66
2022-08-18T10:32:55.999Z,31.71
2022-08-18T10:34:16.082Z,31.70
2022-08-18T10:34:57.665Z,31.77
2022-08-18T10:35:40.562Z,31.68
2022-08-18T10:36:14.771Z,31.67
2022-08-18T10:36:53.276Z,31.80
2022-08-18T10:37:55.519Z,31.80
2022-08-18T10:38:53.509Z,31.80
2022-08-18T10:39:44.951Z,31.73
2022-08-18T10:40:29.575Z,31.89
2022-08-18T10:41:26.551Z,31.91
2022-08-18T10:42:34.533Z,31.86
2022-08-18T10:43:54.976Z,31.93
2022-08-18T10:44:35.047Z,31.91
2022-08-18T10:45:50.786Z,31.99
2022-08-18T10:46:49.505Z,32.01
2022-08-18T10:47:36.729Z,31.95
2022-08-18T10:48:36.509Z,32.00
2022-08-18T10:49:22.584Z,32.11
2022-08-18T10:50:03.496Z,32.13
2022-08-18T10:53:23.855Z,32.19
2022-08-18T10:54:06.550Z,32.23
2022-08-18T10:56:09.502Z,32.21
2022-08-18T10:57:05.408Z,32.21
2022-08-18T10:58:34.382Z,32.17
2022-08-18T10:59:47.838Z,32.14
2022-08-18T11:01:14.501Z,32.25
2022-08-18T11:02:28.941Z,32.27
2022-08-18T11:04:22.593Z,32.22
2022-08-18T11:05:02.631Z,32.28
2022-08-18T11:05:49.448Z,32.23
2022-08-18T11:06:28.636Z,32.26
2022-08-18T11:07:26.462Z,32.32
2022-08-18T11:08:15.673Z,32.38
2022-08-18T11:09:07.502Z,32.40
2022-08-18T11:09:50.865Z,32.43
2022-08-18T11:11:31.504Z,32.43
2022-08-18T11:11:52.763Z,32.39
2022-08-18T11:13:35.488Z,32.54
2022-08-18T11:14:58.532Z,32.59
2022-08-18T11:16:27.465Z,32.55
2022-08-18T11:17:49.478Z,32.66
2022-08-18T11:18:57.440Z,32.66
2022-08-18T11:19:54.539Z,32.73
2022-08-18T11:20:38.495Z,32.72